KWWD/WWD METAR and TAF weather

Enter ICAO airport designator
Station Type Date Time Source
KWWD METAR 2020/11/25 21:56 UTC NOAA

KWWD 252156Z AUTO 16004KT 10SM OVC060 13/09 A3027 RMK AO2 SLP251 T01280089


Station Type Date Time Source
KWWD Decoded METAR 2020/11/25 21:56 UTC NOAA

Wildwood, Cape May County Airport, NJ, United States (KWWD) 39-01N 074-55W
Nov 25, 2020 - 04:56 PM EST / 2020.11.25 2156 UTC
Wind: from the SSE (160 degrees) at 5 MPH (4 KT):0
Visibility: 10 mile(s):0
Sky conditions: overcast
Temperature: 55.0 F (12.8 C)
Dew Point: 48.0 F (8.9 C)
Relative Humidity: 77%
Pressure (altimeter): 30.27 in. Hg (1025 hPa)
ob: KWWD 252156Z AUTO 16004KT 10SM OVC060 13/09 A3027 RMK AO2 SLP251 T01280089
cycle: 22

Station Type Date Time Source
KWWD TAF UTC NOAA

Error!

Example: see airport list